sensor_id;sensor_type;location;lat;lon;timestamp;P1;durP1;ratioP1;P2;durP2;ratioP2
2622;SDS011;1321;48.690;9.022;2023-02-08T00:00:03;8.60;;;6.40;;
2622;SDS011;1321;48.690;9.022;2023-02-08T00:02:33;8.13;;;6.22;;
2622;SDS011;1321;48.690;9.022;2023-02-08T00:05:02;8.80;;;6.47;;
2622;SDS011;1321;48.690;9.022;2023-02-08T00:07:30;7.25;;;5.70;;
2622;SDS011;1321;48.690;9.022;2023-02-08T00:09:58;6.30;;;5.68;;
2622;SDS011;1321;48.690;9.022;2023-02-08T00:12:26;7.95;;;6.60;;
2622;SDS011;1321;48.690;9.022;2023-02-08T00:14:54;6.57;;;5.65;;
2622;SDS011;1321;48.690;9.022;2023-02-08T00:17:22;7.95;;;5.57;;
2622;SDS011;1321;48.690;9.022;2023-02-08T00:19:52;9.00;;;5.93;;
2622;SDS011;1321;48.690;9.022;2023-02-08T00:22:20;5.68;;;5.18;;
2622;SDS011;1321;48.690;9.022;2023-02-08T00:24:48;7.50;;;5.45;;
2622;SDS011;1321;48.690;9.022;2023-02-08T00:27:17;8.43;;;6.45;;
2622;SDS011;1321;48.690;9.022;2023-02-08T00:29:45;8.27;;;4.78;;
2622;SDS011;1321;48.690;9.022;2023-02-08T00:32:13;10.30;;;6.38;;
2622;SDS011;1321;48.690;9.022;2023-02-08T00:34:41;6.90;;;5.10;;
2622;SDS011;1321;48.690;9.022;2023-02-08T00:37:10;7.15;;;4.82;;
2622;SDS011;1321;48.690;9.022;2023-02-08T00:39:39;6.45;;;5.28;;
2622;SDS011;1321;48.690;9.022;2023-02-08T00:42:07;8.55;;;6.00;;
2622;SDS011;1321;48.690;9.022;2023-02-08T00:44:35;6.10;;;5.30;;
2622;SDS011;1321;48.690;9.022;2023-02-08T00:47:03;6.72;;;5.50;;
2622;SDS011;1321;48.690;9.022;2023-02-08T00:49:31;5.90;;;5.20;;
2622;SDS011;1321;48.690;9.022;2023-02-08T00:51:59;7.75;;;5.35;;
2622;SDS011;1321;48.690;9.022;2023-02-08T00:54:29;6.30;;;5.60;;
2622;SDS011;1321;48.690;9.022;2023-02-08T00:56:57;7.45;;;4.65;;
2622;SDS011;1321;48.690;9.022;2023-02-08T00:59:25;7.78;;;5.65;;
2622;SDS011;1321;48.690;9.022;2023-02-08T01:01:54;7.88;;;5.30;;
2622;SDS011;1321;48.690;9.022;2023-02-08T01:04:22;8.80;;;6.20;;
2622;SDS011;1321;48.690;9.022;2023-02-08T01:06:50;11.10;;;6.75;;
2622;SDS011;1321;48.690;9.022;2023-02-08T01:09:18;6.45;;;5.15;;
2622;SDS011;1321;48.690;9.022;2023-02-08T01:11:47;5.68;;;4.95;;
2622;SDS011;1321;48.690;9.022;2023-02-08T01:14:15;6.22;;;5.63;;
2622;SDS011;1321;48.690;9.022;2023-02-08T01:16:44;6.68;;;4.75;;
2622;SDS011;1321;48.690;9.022;2023-02-08T01:19:12;5.93;;;4.70;;
2622;SDS011;1321;48.690;9.022;2023-02-08T01:21:40;8.20;;;5.00;;
2622;SDS011;1321;48.690;9.022;2023-02-08T01:24:09;7.35;;;5.32;;
2622;SDS011;1321;48.690;9.022;2023-02-08T01:26:38;6.20;;;4.88;;
2622;SDS011;1321;48.690;9.022;2023-02-08T01:29:07;7.80;;;4.95;;
2622;SDS011;1321;48.690;9.022;2023-02-08T01:31:36;6.35;;;4.47;;
2622;SDS011;1321;48.690;9.022;2023-02-08T01:34:06;6.97;;;5.30;;
2622;SDS011;1321;48.690;9.022;2023-02-08T01:36:35;5.95;;;4.38;;
2622;SDS011;1321;48.690;9.022;2023-02-08T01:39:04;7.30;;;5.40;;
2622;SDS011;1321;48.690;9.022;2023-02-08T01:41:35;9.13;;;5.63;;
2622;SDS011;1321;48.690;9.022;2023-02-08T01:44:05;5.03;;;4.20;;
2622;SDS011;1321;48.690;9.022;2023-02-08T01:46:56;6.47;;;4.72;;
2622;SDS011;1321;48.690;9.022;2023-02-08T01:49:24;6.07;;;4.38;;
2622;SDS011;1321;48.690;9.022;2023-02-08T01:51:56;5.35;;;4.40;;
2622;SDS011;1321;48.690;9.022;2023-02-08T01:54:31;7.53;;;4.97;;
2622;SDS011;1321;48.690;9.022;2023-02-08T01:57:03;7.35;;;6.07;;
2622;SDS011;1321;48.690;9.022;2023-02-08T01:59:33;9.65;;;5.65;;
2622;SDS011;1321;48.690;9.022;2023-02-08T02:02:08;6.10;;;5.25;;
2622;SDS011;1321;48.690;9.022;2023-02-08T02:04:38;5.93;;;4.60;;
2622;SDS011;1321;48.690;9.022;2023-02-08T02:07:06;8.02;;;5.40;;
2622;SDS011;1321;48.690;9.022;2023-02-08T02:09:37;7.18;;;4.68;;
2622;SDS011;1321;48.690;9.022;2023-02-08T02:12:09;8.73;;;5.43;;
2622;SDS011;1321;48.690;9.022;2023-02-08T02:14:40;6.93;;;4.82;;
2622;SDS011;1321;48.690;9.022;2023-02-08T02:17:10;6.30;;;5.03;;
2622;SDS011;1321;48.690;9.022;2023-02-08T02:19:42;5.13;;;4.63;;
2622;SDS011;1321;48.690;9.022;2023-02-08T02:22:24;6.63;;;4.93;;
2622;SDS011;1321;48.690;9.022;2023-02-08T02:25:15;5.65;;;5.05;;
2622;SDS011;1321;48.690;9.022;2023-02-08T02:28:17;7.43;;;5.38;;
2622;SDS011;1321;48.690;9.022;2023-02-08T02:31:22;7.05;;;5.15;;
2622;SDS011;1321;48.690;9.022;2023-02-08T02:33:57;9.07;;;6.18;;
2622;SDS011;1321;48.690;9.022;2023-02-08T02:36:32;8.60;;;5.85;;
2622;SDS011;1321;48.690;9.022;2023-02-08T02:39:09;6.95;;;5.95;;
2622;SDS011;1321;48.690;9.022;2023-02-08T02:41:47;7.22;;;6.03;;
2622;SDS011;1321;48.690;9.022;2023-02-08T02:44:45;8.27;;;5.60;;
2622;SDS011;1321;48.690;9.022;2023-02-08T02:47:24;7.13;;;5.45;;
2622;SDS011;1321;48.690;9.022;2023-02-08T02:50:00;7.50;;;5.43;;
2622;SDS011;1321;48.690;9.022;2023-02-08T02:52:34;6.10;;;5.00;;
2622;SDS011;1321;48.690;9.022;2023-02-08T02:55:08;7.47;;;5.55;;
2622;SDS011;1321;48.690;9.022;2023-02-08T02:57:39;8.73;;;6.35;;
2622;SDS011;1321;48.690;9.022;2023-02-08T03:00:11;9.15;;;5.30;;
2622;SDS011;1321;48.690;9.022;2023-02-08T03:02:49;9.65;;;6.07;;
2622;SDS011;1321;48.690;9.022;2023-02-08T03:05:17;7.88;;;6.35;;
2622;SDS011;1321;48.690;9.022;2023-02-08T03:07:52;7.70;;;5.95;;
2622;SDS011;1321;48.690;9.022;2023-02-08T03:10:48;7.03;;;4.82;;
2622;SDS011;1321;48.690;9.022;2023-02-08T03:13:31;7.95;;;5.85;;
2622;SDS011;1321;48.690;9.022;2023-02-08T03:16:12;7.22;;;5.82;;
2622;SDS011;1321;48.690;9.022;2023-02-08T03:18:49;8.57;;;5.75;;
2622;SDS011;1321;48.690;9.022;2023-02-08T03:21:31;8.30;;;5.45;;
2622;SDS011;1321;48.690;9.022;2023-02-08T03:24:08;9.32;;;6.30;;
2622;SDS011;1321;48.690;9.022;2023-02-08T03:26:49;8.98;;;6.05;;
2622;SDS011;1321;48.690;9.022;2023-02-08T03:29:24;7.78;;;5.47;;
2622;SDS011;1321;48.690;9.022;2023-02-08T03:32:05;8.23;;;6.65;;
2622;SDS011;1321;48.690;9.022;2023-02-08T03:34:40;8.57;;;5.28;;
2622;SDS011;1321;48.690;9.022;2023-02-08T03:37:13;6.70;;;5.22;;
2622;SDS011;1321;48.690;9.022;2023-02-08T03:39:44;9.77;;;6.93;;
2622;SDS011;1321;48.690;9.022;2023-02-08T03:42:16;9.60;;;6.47;;
2622;SDS011;1321;48.690;9.022;2023-02-08T03:44:50;8.65;;;6.25;;
2622;SDS011;1321;48.690;9.022;2023-02-08T03:47:21;9.07;;;6.10;;
2622;SDS011;1321;48.690;9.022;2023-02-08T03:49:54;8.77;;;5.97;;
2622;SDS011;1321;48.690;9.022;2023-02-08T03:52:25;9.07;;;5.82;;
2622;SDS011;1321;48.690;9.022;2023-02-08T03:54:57;8.48;;;6.00;;
2622;SDS011;1321;48.690;9.022;2023-02-08T03:57:28;7.45;;;5.85;;
2622;SDS011;1321;48.690;9.022;2023-02-08T04:00:00;7.30;;;5.70;;
2622;SDS011;1321;48.690;9.022;2023-02-08T04:02:32;7.45;;;5.80;;
2622;SDS011;1321;48.690;9.022;2023-02-08T04:05:06;5.28;;;4.78;;
2622;SDS011;1321;48.690;9.022;2023-02-08T04:07:34;7.15;;;5.30;;
2622;SDS011;1321;48.690;9.022;2023-02-08T04:10:03;9.20;;;5.72;;
2622;SDS011;1321;48.690;9.022;2023-02-08T04:12:31;9.20;;;6.15;;
2622;SDS011;1321;48.690;9.022;2023-02-08T04:14:59;9.15;;;6.30;;
2622;SDS011;1321;48.690;9.022;2023-02-08T04:17:27;7.90;;;5.60;;
2622;SDS011;1321;48.690;9.022;2023-02-08T04:19:55;8.55;;;5.90;;
2622;SDS011;1321;48.690;9.022;2023-02-08T04:22:25;8.10;;;5.95;;
2622;SDS011;1321;48.690;9.022;2023-02-08T04:24:53;7.95;;;5.50;;
2622;SDS011;1321;48.690;9.022;2023-02-08T04:27:21;8.60;;;5.30;;
2622;SDS011;1321;48.690;9.022;2023-02-08T04:29:49;8.00;;;6.18;;
2622;SDS011;1321;48.690;9.022;2023-02-08T04:32:17;7.95;;;6.43;;
2622;SDS011;1321;48.690;9.022;2023-02-08T04:34:45;9.65;;;5.65;;
2622;SDS011;1321;48.690;9.022;2023-02-08T04:37:14;7.93;;;6.75;;
2622;SDS011;1321;48.690;9.022;2023-02-08T04:39:43;8.23;;;5.95;;
2622;SDS011;1321;48.690;9.022;2023-02-08T04:42:11;11.32;;;5.60;;
2622;SDS011;1321;48.690;9.022;2023-02-08T04:44:39;7.93;;;6.28;;
2622;SDS011;1321;48.690;9.022;2023-02-08T04:47:07;6.93;;;5.28;;
2622;SDS011;1321;48.690;9.022;2023-02-08T04:49:35;7.05;;;6.05;;
2622;SDS011;1321;48.690;9.022;2023-02-08T04:52:03;7.40;;;6.55;;
2622;SDS011;1321;48.690;9.022;2023-02-08T04:54:32;7.82;;;5.80;;
2622;SDS011;1321;48.690;9.022;2023-02-08T04:57:01;8.15;;;6.15;;
2622;SDS011;1321;48.690;9.022;2023-02-08T04:59:29;10.13;;;5.70;;
2622;SDS011;1321;48.690;9.022;2023-02-08T05:01:57;7.78;;;6.43;;
2622;SDS011;1321;48.690;9.022;2023-02-08T05:04:25;7.90;;;5.90;;
2622;SDS011;1321;48.690;9.022;2023-02-08T05:06:53;7.25;;;6.55;;
2622;SDS011;1321;48.690;9.022;2023-02-08T05:09:22;7.20;;;5.60;;
2622;SDS011;1321;48.690;9.022;2023-02-08T05:11:50;7.15;;;5.55;;
2622;SDS011;1321;48.690;9.022;2023-02-08T05:14:19;7.65;;;5.75;;
2622;SDS011;1321;48.690;9.022;2023-02-08T05:16:47;7.82;;;6.03;;
2622;SDS011;1321;48.690;9.022;2023-02-08T05:19:15;8.45;;;5.20;;
2622;SDS011;1321;48.690;9.022;2023-02-08T05:21:43;9.23;;;5.70;;
2622;SDS011;1321;48.690;9.022;2023-02-08T05:24:11;7.70;;;5.55;;
2622;SDS011;1321;48.690;9.022;2023-02-08T05:26:40;8.98;;;6.05;;
2622;SDS011;1321;48.690;9.022;2023-02-08T05:29:08;6.20;;;5.00;;
2622;SDS011;1321;48.690;9.022;2023-02-08T05:31:37;7.15;;;6.43;;
2622;SDS011;1321;48.690;9.022;2023-02-08T05:34:06;8.25;;;5.88;;
2622;SDS011;1321;48.690;9.022;2023-02-08T05:36:34;5.85;;;4.75;;
2622;SDS011;1321;48.690;9.022;2023-02-08T05:39:02;8.10;;;7.00;;
2622;SDS011;1321;48.690;9.022;2023-02-08T05:41:30;11.75;;;7.22;;
2622;SDS011;1321;48.690;9.022;2023-02-08T05:43:58;12.38;;;7.40;;
2622;SDS011;1321;48.690;9.022;2023-02-08T05:46:26;9.82;;;6.97;;
2622;SDS011;1321;48.690;9.022;2023-02-08T05:48:56;7.35;;;5.30;;
2622;SDS011;1321;48.690;9.022;2023-02-08T05:51:24;11.13;;;6.43;;
2622;SDS011;1321;48.690;9.022;2023-02-08T05:53:52;8.75;;;6.85;;
2622;SDS011;1321;48.690;9.022;2023-02-08T05:56:20;10.98;;;6.50;;
2622;SDS011;1321;48.690;9.022;2023-02-08T05:58:49;7.15;;;5.40;;
2622;SDS011;1321;48.690;9.022;2023-02-08T06:01:17;8.32;;;6.22;;
2622;SDS011;1321;48.690;9.022;2023-02-08T06:03:45;8.30;;;6.30;;
2622;SDS011;1321;48.690;9.022;2023-02-08T06:06:15;7.70;;;6.00;;
2622;SDS011;1321;48.690;9.022;2023-02-08T06:08:43;7.57;;;6.47;;
2622;SDS011;1321;48.690;9.022;2023-02-08T06:11:11;9.95;;;6.93;;
2622;SDS011;1321;48.690;9.022;2023-02-08T06:13:39;8.30;;;5.50;;
2622;SDS011;1321;48.690;9.022;2023-02-08T06:16:07;6.35;;;5.25;;
2622;SDS011;1321;48.690;9.022;2023-02-08T06:18:35;10.20;;;6.28;;
2622;SDS011;1321;48.690;9.022;2023-02-08T06:21:04;8.60;;;6.40;;
2622;SDS011;1321;48.690;9.022;2023-02-08T06:23:33;6.78;;;5.70;;
2622;SDS011;1321;48.690;9.022;2023-02-08T06:26:02;6.70;;;5.45;;
2622;SDS011;1321;48.690;9.022;2023-02-08T06:28:30;8.02;;;6.07;;
2622;SDS011;1321;48.690;9.022;2023-02-08T06:30:58;10.18;;;6.18;;
2622;SDS011;1321;48.690;9.022;2023-02-08T06:33:26;7.68;;;6.13;;
2622;SDS011;1321;48.690;9.022;2023-02-08T06:35:54;8.70;;;6.35;;
2622;SDS011;1321;48.690;9.022;2023-02-08T06:38:22;5.75;;;5.15;;
2622;SDS011;1321;48.690;9.022;2023-02-08T06:40:52;9.13;;;5.88;;
2622;SDS011;1321;48.690;9.022;2023-02-08T06:43:20;14.40;;;7.68;;
2622;SDS011;1321;48.690;9.022;2023-02-08T06:45:48;8.25;;;6.15;;
2622;SDS011;1321;48.690;9.022;2023-02-08T06:48:16;8.60;;;6.18;;
2622;SDS011;1321;48.690;9.022;2023-02-08T06:50:44;9.50;;;6.10;;
2622;SDS011;1321;48.690;9.022;2023-02-08T06:53:13;12.13;;;7.15;;
2622;SDS011;1321;48.690;9.022;2023-02-08T06:55:41;8.75;;;6.35;;
2622;SDS011;1321;48.690;9.022;2023-02-08T06:58:11;8.25;;;6.28;;
2622;SDS011;1321;48.690;9.022;2023-02-08T07:00:39;9.27;;;6.07;;
2622;SDS011;1321;48.690;9.022;2023-02-08T07:03:08;9.73;;;6.70;;
2622;SDS011;1321;48.690;9.022;2023-02-08T07:05:36;8.95;;;6.93;;
2622;SDS011;1321;48.690;9.022;2023-02-08T07:08:05;7.55;;;5.88;;
2622;SDS011;1321;48.690;9.022;2023-02-08T07:10:33;10.40;;;6.65;;
2622;SDS011;1321;48.690;9.022;2023-02-08T07:13:01;9.10;;;6.70;;
2622;SDS011;1321;48.690;9.022;2023-02-08T07:15:31;10.25;;;6.93;;
2622;SDS011;1321;48.690;9.022;2023-02-08T07:18:00;7.75;;;6.25;;
2622;SDS011;1321;48.690;9.022;2023-02-08T07:20:28;6.70;;;6.00;;
2622;SDS011;1321;48.690;9.022;2023-02-08T07:22:56;7.72;;;5.40;;
2622;SDS011;1321;48.690;9.022;2023-02-08T07:25:25;9.60;;;6.80;;
2622;SDS011;1321;48.690;9.022;2023-02-08T07:27:53;9.88;;;6.60;;
2622;SDS011;1321;48.690;9.022;2023-02-08T07:30:21;7.85;;;5.93;;
2622;SDS011;1321;48.690;9.022;2023-02-08T07:32:51;7.88;;;6.15;;
2622;SDS011;1321;48.690;9.022;2023-02-08T07:35:19;10.18;;;6.35;;
2622;SDS011;1321;48.690;9.022;2023-02-08T07:37:47;10.52;;;6.85;;
2622;SDS011;1321;48.690;9.022;2023-02-08T07:40:16;7.05;;;6.20;;
2622;SDS011;1321;48.690;9.022;2023-02-08T07:42:44;11.65;;;6.57;;
2622;SDS011;1321;48.690;9.022;2023-02-08T07:45:12;9.27;;;6.10;;
2622;SDS011;1321;48.690;9.022;2023-02-08T07:47:40;10.45;;;7.65;;
2622;SDS011;1321;48.690;9.022;2023-02-08T07:50:10;11.75;;;6.18;;
2622;SDS011;1321;48.690;9.022;2023-02-08T07:52:38;8.10;;;6.15;;
2622;SDS011;1321;48.690;9.022;2023-02-08T07:55:08;8.80;;;6.38;;
2622;SDS011;1321;48.690;9.022;2023-02-08T07:57:37;8.30;;;6.00;;
2622;SDS011;1321;48.690;9.022;2023-02-08T08:00:06;8.88;;;6.60;;
2622;SDS011;1321;48.690;9.022;2023-02-08T08:02:36;12.55;;;6.55;;
2622;SDS011;1321;48.690;9.022;2023-02-08T08:05:04;9.95;;;6.93;;
2622;SDS011;1321;48.690;9.022;2023-02-08T08:07:34;8.77;;;6.90;;
2622;SDS011;1321;48.690;9.022;2023-02-08T08:10:03;11.38;;;7.43;;
2622;SDS011;1321;48.690;9.022;2023-02-08T08:12:31;9.43;;;6.35;;
2622;SDS011;1321;48.690;9.022;2023-02-08T08:15:00;10.35;;;6.97;;
2622;SDS011;1321;48.690;9.022;2023-02-08T08:17:28;10.25;;;7.28;;
2622;SDS011;1321;48.690;9.022;2023-02-08T08:19:56;8.38;;;6.50;;
2622;SDS011;1321;48.690;9.022;2023-02-08T08:22:24;9.07;;;7.15;;
2622;SDS011;1321;48.690;9.022;2023-02-08T08:24:53;10.23;;;7.63;;
2622;SDS011;1321;48.690;9.022;2023-02-08T08:27:24;11.27;;;7.30;;
2622;SDS011;1321;48.690;9.022;2023-02-08T08:29:52;11.40;;;7.85;;
2622;SDS011;1321;48.690;9.022;2023-02-08T08:32:21;10.02;;;7.32;;
2622;SDS011;1321;48.690;9.022;2023-02-08T08:34:49;9.20;;;6.32;;
2622;SDS011;1321;48.690;9.022;2023-02-08T08:37:17;10.10;;;6.85;;
2622;SDS011;1321;48.690;9.022;2023-02-08T08:39:45;9.70;;;6.93;;
2622;SDS011;1321;48.690;9.022;2023-02-08T08:42:14;7.85;;;6.55;;
2622;SDS011;1321;48.690;9.022;2023-02-08T08:44:43;12.07;;;6.20;;
2622;SDS011;1321;48.690;9.022;2023-02-08T08:47:11;9.25;;;6.53;;
2622;SDS011;1321;48.690;9.022;2023-02-08T08:49:39;8.60;;;6.83;;
2622;SDS011;1321;48.690;9.022;2023-02-08T08:52:09;8.82;;;6.55;;
2622;SDS011;1321;48.690;9.022;2023-02-08T08:54:37;11.60;;;6.97;;
2622;SDS011;1321;48.690;9.022;2023-02-08T08:57:05;7.82;;;5.90;;
2622;SDS011;1321;48.690;9.022;2023-02-08T08:59:35;8.20;;;6.50;;
2622;SDS011;1321;48.690;9.022;2023-02-08T09:02:03;9.57;;;6.43;;
2622;SDS011;1321;48.690;9.022;2023-02-08T09:04:31;7.73;;;6.50;;
2622;SDS011;1321;48.690;9.022;2023-02-08T09:07:00;9.70;;;6.73;;
2622;SDS011;1321;48.690;9.022;2023-02-08T09:09:28;7.77;;;5.77;;
2622;SDS011;1321;48.690;9.022;2023-02-08T09:11:56;8.67;;;6.13;;
2622;SDS011;1321;48.690;9.022;2023-02-08T09:14:24;11.70;;;5.90;;
2622;SDS011;1321;48.690;9.022;2023-02-08T09:16:54;8.53;;;6.23;;
2622;SDS011;1321;48.690;9.022;2023-02-08T09:19:22;8.13;;;6.47;;
2622;SDS011;1321;48.690;9.022;2023-02-08T09:21:51;7.40;;;5.27;;
2622;SDS011;1321;48.690;9.022;2023-02-08T09:24:19;8.93;;;5.77;;
2622;SDS011;1321;48.690;9.022;2023-02-08T09:26:47;10.03;;;5.97;;
2622;SDS011;1321;48.690;9.022;2023-02-08T09:29:15;7.00;;;5.47;;
2622;SDS011;1321;48.690;9.022;2023-02-08T09:31:43;8.83;;;6.47;;
2622;SDS011;1321;48.690;9.022;2023-02-08T09:34:13;6.77;;;6.17;;
2622;SDS011;1321;48.690;9.022;2023-02-08T09:36:41;8.17;;;5.83;;
2622;SDS011;1321;48.690;9.022;2023-02-08T09:39:10;7.63;;;6.50;;
2622;SDS011;1321;48.690;9.022;2023-02-08T09:41:47;7.83;;;5.40;;
2622;SDS011;1321;48.690;9.022;2023-02-08T09:44:38;9.50;;;5.93;;
2622;SDS011;1321;48.690;9.022;2023-02-08T09:47:17;9.00;;;6.30;;
2622;SDS011;1321;48.690;9.022;2023-02-08T09:49:53;10.30;;;6.57;;
2622;SDS011;1321;48.690;9.022;2023-02-08T09:52:26;10.43;;;7.27;;
2622;SDS011;1321;48.690;9.022;2023-02-08T09:55:00;11.70;;;6.33;;
2622;SDS011;1321;48.690;9.022;2023-02-08T09:57:47;8.07;;;6.50;;
2622;SDS011;1321;48.690;9.022;2023-02-08T10:00:20;9.27;;;6.67;;
2622;SDS011;1321;48.690;9.022;2023-02-08T10:02:54;9.40;;;6.73;;
2622;SDS011;1321;48.690;9.022;2023-02-08T10:05:27;9.93;;;6.77;;
2622;SDS011;1321;48.690;9.022;2023-02-08T10:07:57;11.33;;;7.57;;
2622;SDS011;1321;48.690;9.022;2023-02-08T10:10:30;10.83;;;7.30;;
2622;SDS011;1321;48.690;9.022;2023-02-08T10:13:11;8.03;;;7.23;;
2622;SDS011;1321;48.690;9.022;2023-02-08T10:16:07;9.90;;;7.27;;
2622;SDS011;1321;48.690;9.022;2023-02-08T10:18:45;9.10;;;7.57;;
2622;SDS011;1321;48.690;9.022;2023-02-08T10:21:26;8.63;;;6.40;;
2622;SDS011;1321;48.690;9.022;2023-02-08T10:24:09;9.83;;;6.77;;
2622;SDS011;1321;48.690;9.022;2023-02-08T10:26:52;9.30;;;7.60;;
2622;SDS011;1321;48.690;9.022;2023-02-08T10:32:43;7.40;;;6.50;;
2622;SDS011;1321;48.690;9.022;2023-02-08T10:35:21;8.70;;;5.87;;
2622;SDS011;1321;48.690;9.022;2023-02-08T10:37:53;8.13;;;6.13;;
2622;SDS011;1321;48.690;9.022;2023-02-08T10:40:29;8.40;;;6.77;;
2622;SDS011;1321;48.690;9.022;2023-02-08T10:43:08;9.03;;;6.30;;
2622;SDS011;1321;48.690;9.022;2023-02-08T10:45:46;7.33;;;6.57;;
2622;SDS011;1321;48.690;9.022;2023-02-08T10:48:21;8.53;;;7.47;;
2622;SDS011;1321;48.690;9.022;2023-02-08T10:50:58;8.80;;;7.07;;
2622;SDS011;1321;48.690;9.022;2023-02-08T10:53:27;6.97;;;6.37;;
2622;SDS011;1321;48.690;9.022;2023-02-08T10:55:56;10.10;;;6.80;;
2622;SDS011;1321;48.690;9.022;2023-02-08T10:58:24;8.80;;;7.07;;
2622;SDS011;1321;48.690;9.022;2023-02-08T11:00:52;7.57;;;6.80;;
2622;SDS011;1321;48.690;9.022;2023-02-08T11:03:24;8.10;;;7.00;;
2622;SDS011;1321;48.690;9.022;2023-02-08T11:05:54;9.30;;;7.07;;
2622;SDS011;1321;48.690;9.022;2023-02-08T11:08:23;6.87;;;6.27;;
2622;SDS011;1321;48.690;9.022;2023-02-08T11:10:57;8.47;;;6.50;;
2622;SDS011;1321;48.690;9.022;2023-02-08T11:13:31;7.93;;;6.30;;
2622;SDS011;1321;48.690;9.022;2023-02-08T11:16:03;7.57;;;5.87;;
2622;SDS011;1321;48.690;9.022;2023-02-08T11:18:33;7.37;;;6.30;;
2622;SDS011;1321;48.690;9.022;2023-02-08T11:21:04;6.63;;;5.93;;
2622;SDS011;1321;48.690;9.022;2023-02-08T11:23:36;10.77;;;6.60;;
2622;SDS011;1321;48.690;9.022;2023-02-08T11:26:18;9.10;;;6.23;;
2622;SDS011;1321;48.690;9.022;2023-02-08T11:28:59;7.33;;;5.63;;
2622;SDS011;1321;48.690;9.022;2023-02-08T11:31:31;6.73;;;5.90;;
2622;SDS011;1321;48.690;9.022;2023-02-08T11:34:01;6.50;;;5.60;;
2622;SDS011;1321;48.690;9.022;2023-02-08T11:36:31;9.07;;;6.00;;
2622;SDS011;1321;48.690;9.022;2023-02-08T11:39:01;7.37;;;5.80;;
2622;SDS011;1321;48.690;9.022;2023-02-08T11:41:43;6.57;;;5.90;;
2622;SDS011;1321;48.690;9.022;2023-02-08T11:44:14;6.73;;;6.03;;
2622;SDS011;1321;48.690;9.022;2023-02-08T11:46:48;6.80;;;5.27;;
2622;SDS011;1321;48.690;9.022;2023-02-08T11:49:21;5.47;;;4.97;;
2622;SDS011;1321;48.690;9.022;2023-02-08T11:51:52;5.83;;;5.00;;
2622;SDS011;1321;48.690;9.022;2023-02-08T11:54:30;7.80;;;5.50;;
2622;SDS011;1321;48.690;9.022;2023-02-08T11:57:15;6.27;;;5.30;;
2622;SDS011;1321;48.690;9.022;2023-02-08T11:59:45;6.43;;;5.17;;
2622;SDS011;1321;48.690;9.022;2023-02-08T12:02:22;5.13;;;4.23;;
2622;SDS011;1321;48.690;9.022;2023-02-08T12:05:01;5.53;;;4.90;;
2622;SDS011;1321;48.690;9.022;2023-02-08T12:07:36;5.90;;;4.33;;
2622;SDS011;1321;48.690;9.022;2023-02-08T12:10:28;6.47;;;4.37;;
2622;SDS011;1321;48.690;9.022;2023-02-08T12:13:25;5.03;;;4.40;;
2622;SDS011;1321;48.690;9.022;2023-02-08T12:16:13;6.50;;;4.83;;
2622;SDS011;1321;48.690;9.022;2023-02-08T12:19:02;6.23;;;4.57;;
2622;SDS011;1321;48.690;9.022;2023-02-08T12:21:53;7.40;;;4.43;;
2622;SDS011;1321;48.690;9.022;2023-02-08T12:24:27;3.73;;;3.20;;
2622;SDS011;1321;48.690;9.022;2023-02-08T12:27:06;5.73;;;3.60;;
2622;SDS011;1321;48.690;9.022;2023-02-08T12:29:46;5.10;;;4.00;;
2622;SDS011;1321;48.690;9.022;2023-02-08T12:32:23;4.43;;;4.00;;
2622;SDS011;1321;48.690;9.022;2023-02-08T12:38:32;3.77;;;3.30;;
2622;SDS011;1321;48.690;9.022;2023-02-08T12:41:46;3.80;;;3.10;;
2622;SDS011;1321;48.690;9.022;2023-02-08T12:44:26;3.87;;;3.50;;
2622;SDS011;1321;48.690;9.022;2023-02-08T12:47:21;4.50;;;3.50;;
2622;SDS011;1321;48.690;9.022;2023-02-08T12:50:06;3.70;;;3.37;;
2622;SDS011;1321;48.690;9.022;2023-02-08T12:52:38;4.07;;;3.33;;
2622;SDS011;1321;48.690;9.022;2023-02-08T12:55:12;4.57;;;3.77;;
2622;SDS011;1321;48.690;9.022;2023-02-08T12:57:46;3.80;;;3.40;;
2622;SDS011;1321;48.690;9.022;2023-02-08T13:00:18;3.70;;;2.87;;
2622;SDS011;1321;48.690;9.022;2023-02-08T13:02:52;3.80;;;3.53;;
2622;SDS011;1321;48.690;9.022;2023-02-08T13:05:25;4.03;;;3.13;;
2622;SDS011;1321;48.690;9.022;2023-02-08T13:08:01;3.03;;;2.77;;
2622;SDS011;1321;48.690;9.022;2023-02-08T13:10:34;3.23;;;2.57;;
2622;SDS011;1321;48.690;9.022;2023-02-08T13:13:09;2.83;;;2.50;;
2622;SDS011;1321;48.690;9.022;2023-02-08T13:15:43;2.90;;;2.47;;
2622;SDS011;1321;48.690;9.022;2023-02-08T13:18:20;4.00;;;2.47;;
2622;SDS011;1321;48.690;9.022;2023-02-08T13:20:52;2.90;;;2.60;;
2622;SDS011;1321;48.690;9.022;2023-02-08T13:23:26;3.70;;;3.33;;
2622;SDS011;1321;48.690;9.022;2023-02-08T13:26:02;3.20;;;2.90;;
2622;SDS011;1321;48.690;9.022;2023-02-08T13:28:35;3.50;;;3.03;;
2622;SDS011;1321;48.690;9.022;2023-02-08T13:31:06;2.93;;;2.60;;
2622;SDS011;1321;48.690;9.022;2023-02-08T13:33:40;2.90;;;2.33;;
2622;SDS011;1321;48.690;9.022;2023-02-08T13:36:27;3.93;;;3.10;;
2622;SDS011;1321;48.690;9.022;2023-02-08T13:38:59;3.80;;;3.40;;
2622;SDS011;1321;48.690;9.022;2023-02-08T13:41:29;3.80;;;2.80;;
2622;SDS011;1321;48.690;9.022;2023-02-08T13:43:59;4.13;;;2.60;;
2622;SDS011;1321;48.690;9.022;2023-02-08T13:46:34;3.67;;;3.30;;
2622;SDS011;1321;48.690;9.022;2023-02-08T13:49:05;7.00;;;3.17;;
2622;SDS011;1321;48.690;9.022;2023-02-08T13:51:54;4.00;;;3.07;;
2622;SDS011;1321;48.690;9.022;2023-02-08T13:54:22;6.10;;;3.90;;
2622;SDS011;1321;48.690;9.022;2023-02-08T13:56:51;4.60;;;3.33;;
2622;SDS011;1321;48.690;9.022;2023-02-08T13:59:24;5.20;;;3.80;;
2622;SDS011;1321;48.690;9.022;2023-02-08T14:05:27;5.93;;;4.00;;
2622;SDS011;1321;48.690;9.022;2023-02-08T14:08:06;9.07;;;4.30;;
2622;SDS011;1321;48.690;9.022;2023-02-08T14:10:44;4.30;;;3.40;;
2622;SDS011;1321;48.690;9.022;2023-02-08T14:13:21;4.83;;;4.10;;
2622;SDS011;1321;48.690;9.022;2023-02-08T14:18:55;9.73;;;4.70;;
2622;SDS011;1321;48.690;9.022;2023-02-08T14:21:34;4.87;;;4.17;;
2622;SDS011;1321;48.690;9.022;2023-02-08T14:24:05;6.90;;;4.50;;
2622;SDS011;1321;48.690;9.022;2023-02-08T14:26:45;7.03;;;5.40;;
2622;SDS011;1321;48.690;9.022;2023-02-08T14:29:18;5.97;;;5.37;;
2622;SDS011;1321;48.690;9.022;2023-02-08T14:31:51;7.50;;;5.20;;
2622;SDS011;1321;48.690;9.022;2023-02-08T14:34:20;5.97;;;4.80;;
2622;SDS011;1321;48.690;9.022;2023-02-08T14:36:59;6.07;;;4.47;;
2622;SDS011;1321;48.690;9.022;2023-02-08T14:39:30;7.50;;;5.60;;
2622;SDS011;1321;48.690;9.022;2023-02-08T14:42:00;7.83;;;5.40;;
2622;SDS011;1321;48.690;9.022;2023-02-08T14:50:36;7.00;;;5.10;;
2622;SDS011;1321;48.690;9.022;2023-02-08T14:53:28;6.40;;;5.80;;
2622;SDS011;1321;48.690;9.022;2023-02-08T14:56:02;5.33;;;4.80;;
2622;SDS011;1321;48.690;9.022;2023-02-08T14:58:34;7.03;;;5.33;;
2622;SDS011;1321;48.690;9.022;2023-02-08T15:01:06;6.13;;;5.23;;
2622;SDS011;1321;48.690;9.022;2023-02-08T15:03:40;7.17;;;5.33;;
2622;SDS011;1321;48.690;9.022;2023-02-08T15:09:17;9.60;;;5.83;;
2622;SDS011;1321;48.690;9.022;2023-02-08T15:11:48;8.20;;;5.53;;
2622;SDS011;1321;48.690;9.022;2023-02-08T15:14:22;6.47;;;5.63;;
2622;SDS011;1321;48.690;9.022;2023-02-08T15:16:50;7.37;;;6.00;;
2622;SDS011;1321;48.690;9.022;2023-02-08T15:19:21;9.40;;;5.20;;
2622;SDS011;1321;48.690;9.022;2023-02-08T15:21:52;9.57;;;6.00;;
2622;SDS011;1321;48.690;9.022;2023-02-08T15:24:23;10.67;;;6.33;;
2622;SDS011;1321;48.690;9.022;2023-02-08T15:26:55;8.60;;;6.30;;
2622;SDS011;1321;48.690;9.022;2023-02-08T15:29:24;8.93;;;6.27;;
2622;SDS011;1321;48.690;9.022;2023-02-08T15:32:10;6.53;;;5.93;;
2622;SDS011;1321;48.690;9.022;2023-02-08T15:34:41;7.73;;;5.30;;
2622;SDS011;1321;48.690;9.022;2023-02-08T15:37:12;7.37;;;5.93;;
2622;SDS011;1321;48.690;9.022;2023-02-08T15:39:44;8.30;;;6.20;;
2622;SDS011;1321;48.690;9.022;2023-02-08T15:42:15;11.13;;;6.60;;
2622;SDS011;1321;48.690;9.022;2023-02-08T15:44:45;9.13;;;6.37;;
2622;SDS011;1321;48.690;9.022;2023-02-08T15:47:15;8.40;;;7.17;;
2622;SDS011;1321;48.690;9.022;2023-02-08T15:49:46;10.03;;;7.67;;
2622;SDS011;1321;48.690;9.022;2023-02-08T15:52:20;11.20;;;7.03;;
2622;SDS011;1321;48.690;9.022;2023-02-08T15:54:51;8.57;;;7.07;;
2622;SDS011;1321;48.690;9.022;2023-02-08T15:57:21;8.90;;;7.43;;
2622;SDS011;1321;48.690;9.022;2023-02-08T15:59:57;8.33;;;6.90;;
2622;SDS011;1321;48.690;9.022;2023-02-08T16:02:27;12.30;;;7.30;;
2622;SDS011;1321;48.690;9.022;2023-02-08T16:04:56;9.07;;;7.33;;
2622;SDS011;1321;48.690;9.022;2023-02-08T16:07:26;9.00;;;6.70;;